Time;durP1;ratioP1;P1;durP2;ratioP2;P2;SDS_P1;SDS_P2;PMS_P1;PMS_P2;Temp;Humidity;BMP_temperature;BMP_pressure;BME280_temperature;BME280_humidity;BME280_pressure;Samples;Min_cycle;Max_cycle;Signal;HPM_P1;HPM_P2
2023/08/24 00:00:24;;;;;;;41.20;24.70;;;;;;;20.73;57.67;99486.93;105949;1251;61247;-60
2023/08/24 00:02:51;;;;;;;27.80;19.10;;;;;;;20.74;57.89;99491.00;105978;1251;75141;-60
2023/08/24 00:05:17;;;;;;;58.30;34.60;;;;;;;20.72;58.21;99487.86;105996;1251;69149;-65
2023/08/24 00:07:44;;;;;;;64.70;38.90;;;;;;;20.58;58.65;99486.39;105947;1251;72892;-61
2023/08/24 00:10:11;;;;;;;105.10;65.40;;;;;;;20.52;58.83;99483.55;105967;1251;61909;-61
2023/08/24 00:12:39;;;;;;;88.00;54.30;;;;;;;20.54;59.04;99488.60;105948;1251;61336;-60
2023/08/24 00:15:08;;;;;;;47.30;30.20;;;;;;;20.53;59.05;99492.39;105718;1259;74912;-60
2023/08/24 00:17:35;;;;;;;69.90;43.80;;;;;;;20.53;59.15;99487.86;105970;1253;68264;-61
2023/08/24 00:20:04;;;;;;;91.40;56.00;;;;;;;20.50;59.46;99490.00;106011;1251;73115;-60
2023/08/24 00:22:31;;;;;;;92.10;54.20;;;;;;;20.53;59.08;99488.11;105993;1256;61595;-61
2023/08/24 00:24:58;;;;;;;97.20;57.20;;;;;;;20.42;59.42;99484.55;105961;1251;61233;-61
2023/08/24 00:27:25;;;;;;;106.20;62.20;;;;;;;20.23;60.65;99488.17;105979;1255;75146;-65
2023/08/24 00:29:52;;;;;;;101.00;60.70;;;;;;;20.03;61.93;99482.84;105961;1251;69186;-60
2023/08/24 00:32:19;;;;;;;83.20;51.30;;;;;;;19.86;62.70;99480.52;106003;1253;72996;-61
2023/08/24 00:34:46;;;;;;;81.90;51.20;;;;;;;19.92;62.60;99483.13;105958;1253;61911;-60
2023/08/24 00:37:12;;;;;;;87.10;55.20;;;;;;;20.01;62.16;99484.16;105643;1254;61384;-61
2023/08/24 00:39:39;;;;;;;82.40;51.70;;;;;;;20.05;61.98;99487.25;105809;1256;75160;-59
2023/08/24 00:42:06;;;;;;;74.70;49.50;;;;;;;20.04;62.01;99493.11;105923;1251;69121;-59
2023/08/24 00:44:33;;;;;;;70.40;42.70;;;;;;;20.08;61.79;99491.04;106008;1254;72971;-60
2023/08/24 00:47:00;;;;;;;65.80;42.40;;;;;;;20.07;62.28;99490.13;105955;1251;61928;-64
2023/08/24 00:49:29;;;;;;;55.90;37.70;;;;;;;19.96;62.58;99491.49;105977;1251;61285;-60
2023/08/24 00:51:56;;;;;;;44.40;28.90;;;;;;;19.99;62.45;99491.89;105830;1256;74928;-61
2023/08/24 00:54:23;;;;;;;40.50;26.10;;;;;;;19.92;63.64;99489.20;106000;1251;69092;-60
2023/08/24 00:56:51;;;;;;;37.70;26.50;;;;;;;19.97;63.16;99493.54;105977;1251;73062;-61
2023/08/24 00:59:18;;;;;;;37.20;23.40;;;;;;;19.82;64.52;99496.30;105821;1251;61765;-61
2023/08/24 01:01:45;;;;;;;32.40;19.70;;;;;;;19.75;65.07;99492.09;105701;1259;61391;-60
2023/08/24 01:04:13;;;;;;;24.70;16.50;;;;;;;19.70;65.18;99493.55;105700;1258;74770;-61
2023/08/24 01:06:40;;;;;;;19.00;13.60;;;;;;;19.73;65.09;99493.52;105708;1251;69185;-59
2023/08/24 01:09:07;;;;;;;17.30;12.10;;;;;;;19.62;65.75;99494.23;105936;1251;72971;-65
2023/08/24 01:11:53;;;;;;;23.00;13.00;;;;;;;19.65;65.58;99491.48;105822;1251;61932;-59
2023/08/24 01:14:38;;;;;;;20.70;12.70;;;;;;;19.56;65.90;99486.90;105947;1251;61327;-65
2023/08/24 01:17:05;;;;;;;22.80;11.90;;;;;;;19.61;65.25;99489.10;105942;1256;74782;-60
2023/08/24 01:19:43;;;;;;;17.90;11.80;;;;;;;19.49;65.69;99487.94;105806;1251;69161;-61
2023/08/24 01:22:28;;;;;;;16.30;11.70;;;;;;;19.45;65.88;99487.63;105949;1253;72395;-63
2023/08/24 01:25:16;;;;;;;21.70;11.40;;;;;;;19.41;65.89;99491.08;105843;1251;61891;-60
2023/08/24 01:27:43;;;;;;;17.90;10.00;;;;;;;19.37;66.23;99491.39;105970;1251;61218;-60
2023/08/24 01:30:10;;;;;;;17.80;11.50;;;;;;;19.45;65.99;99495.35;105889;1256;74927;-61
2023/08/24 01:32:37;;;;;;;26.50;14.50;;;;;;;19.38;65.77;99498.04;105962;1251;69169;-60
2023/08/24 01:35:06;;;;;;;30.20;11.90;;;;;;;19.33;66.00;99496.44;105968;1251;72925;-61
2023/08/24 01:37:34;;;;;;;16.40;11.30;;;;;;;19.14;67.09;99493.95;105929;1251;61660;-60
2023/08/24 01:40:12;;;;;;;20.50;11.60;;;;;;;19.20;67.15;99494.34;105947;1255;61250;-61
2023/08/24 01:42:51;;;;;;;24.60;14.20;;;;;;;19.17;67.43;99490.87;105701;1258;75328;-60
2023/08/24 01:45:18;;;;;;;21.90;16.70;;;;;;;19.26;67.41;99489.98;106083;1251;69239;-61
2023/08/24 01:47:46;;;;;;;20.80;14.90;;;;;;;19.34;66.83;99490.66;105739;1257;72145;-60
2023/08/24 01:50:13;;;;;;;19.10;14.10;;;;;;;19.35;66.14;99487.69;105962;1253;61244;-60
2023/08/24 01:52:41;;;;;;;20.30;14.40;;;;;;;19.37;65.77;99484.63;105915;1255;61325;-60
2023/08/24 01:55:08;;;;;;;19.50;15.70;;;;;;;19.33;66.06;99483.86;105944;1256;75176;-59
2023/08/24 01:57:35;;;;;;;15.50;12.60;;;;;;;19.30;66.33;99486.19;105957;1251;69113;-60
2023/08/24 02:00:06;;;;;;;17.10;12.20;;;;;;;19.33;66.17;99483.94;105973;1254;73086;-61
2023/08/24 02:02:40;;;;;;;20.20;11.30;;;;;;;19.16;67.44;99486.66;105916;1251;61768;-61
2023/08/24 02:05:08;;;;;;;20.30;11.30;;;;;;;19.11;67.71;99488.11;105951;1251;61322;-63
2023/08/24 02:07:35;;;;;;;13.90;10.80;;;;;;;19.07;67.67;99486.61;105983;1256;73829;-61
2023/08/24 02:10:03;;;;;;;17.40;10.80;;;;;;;19.02;67.87;99485.00;105964;1251;69066;-61
2023/08/24 02:12:31;;;;;;;12.60;8.60;;;;;;;18.98;67.99;99482.77;105943;1255;73113;-59
2023/08/24 02:14:58;;;;;;;15.90;10.10;;;;;;;18.97;67.98;99485.09;105969;1252;62002;-61
2023/08/24 02:17:28;;;;;;;17.20;10.10;;;;;;;18.96;67.93;99485.05;105924;1251;61313;-64
2023/08/24 02:19:55;;;;;;;15.70;10.50;;;;;;;19.09;67.27;99486.08;106303;1256;74925;-63
2023/08/24 02:22:22;;;;;;;20.50;10.90;;;;;;;19.09;67.26;99488.96;107952;1251;67539;-65
2023/08/24 02:24:49;;;;;;;18.10;12.00;;;;;;;19.02;67.89;99486.84;108097;1252;72547;-65
2023/08/24 02:27:16;;;;;;;14.40;9.60;;;;;;;19.11;67.23;99485.52;108036;1251;61287;-66
2023/08/24 02:29:44;;;;;;;15.70;10.30;;;;;;;19.02;67.20;99487.17;106930;1251;61250;-61
2023/08/24 02:32:13;;;;;;;17.30;9.70;;;;;;;18.96;67.45;99487.55;105923;1251;75549;-63
2023/08/24 02:34:40;;;;;;;15.10;9.80;;;;;;;18.75;68.37;99487.17;105974;1251;69314;-65
2023/08/24 02:37:07;;;;;;;17.10;9.60;;;;;;;18.83;67.88;99483.70;105961;1254;73603;-66
2023/08/24 02:39:34;;;;;;;18.30;9.80;;;;;;;18.74;68.49;99485.36;105889;1251;61897;-63
2023/08/24 02:42:02;;;;;;;12.70;9.20;;;;;;;18.67;68.92;99483.31;105952;1251;61406;-61
2023/08/24 02:44:29;;;;;;;15.00;9.60;;;;;;;18.62;69.26;99483.58;105915;1256;75062;-61
2023/08/24 02:46:56;;;;;;;12.50;9.00;;;;;;;18.55;69.94;99486.19;105924;1251;68955;-62
2023/08/24 02:49:23;;;;;;;12.30;8.70;;;;;;;18.66;69.10;99490.62;105934;1256;72983;-60
2023/08/24 02:51:50;;;;;;;15.40;9.30;;;;;;;18.65;68.68;99497.27;105973;1251;61933;-61
2023/08/24 02:54:16;;;;;;;15.30;9.40;;;;;;;18.68;69.15;99501.12;105919;1251;61251;-60
2023/08/24 02:56:43;;;;;;;11.40;8.30;;;;;;;18.70;69.61;99501.40;105916;1256;74956;-59
2023/08/24 02:59:11;;;;;;;11.90;8.80;;;;;;;18.67;69.70;99508.25;105680;1257;68574;-60
2023/08/24 03:01:41;;;;;;;14.60;8.90;;;;;;;18.69;69.40;99504.40;105928;1256;73202;-59
2023/08/24 03:04:09;;;;;;;17.60;10.10;;;;;;;18.65;69.24;99503.51;105928;1256;61745;-61
2023/08/24 03:06:36;;;;;;;21.90;13.00;;;;;;;18.71;68.63;99500.02;105907;1251;61362;-60
2023/08/24 03:09:06;;;;;;;20.40;13.80;;;;;;;18.80;68.21;99498.17;105957;1252;75074;-61
2023/08/24 03:11:32;;;;;;;12.10;9.20;;;;;;;18.80;68.28;99494.49;105935;1251;69137;-64
2023/08/24 03:13:59;;;;;;;11.60;8.60;;;;;;;18.83;68.00;99492.56;105893;1251;73126;-59
2023/08/24 03:16:26;;;;;;;11.60;9.50;;;;;;;18.84;68.00;99490.58;105929;1251;61800;-59
2023/08/24 03:18:53;;;;;;;13.30;9.50;;;;;;;18.79;68.05;99494.44;105728;1252;61346;-62
2023/08/24 03:21:21;;;;;;;13.20;8.30;;;;;;;18.69;68.71;99488.69;105664;1260;75099;-59
2023/08/24 03:23:47;;;;;;;22.50;9.40;;;;;;;18.54;69.71;99484.96;105890;1251;69126;-60
2023/08/24 03:26:16;;;;;;;17.30;9.90;;;;;;;18.49;70.40;99487.84;105722;1254;73004;-60
2023/08/24 03:28:43;;;;;;;14.90;9.20;;;;;;;18.59;70.25;99493.38;105892;1252;61321;-60
2023/08/24 03:31:10;;;;;;;19.50;7.90;;;;;;;18.84;69.44;99491.98;105790;1256;61343;-60
2023/08/24 03:33:37;;;;;;;15.90;9.70;;;;;;;19.12;68.40;99497.74;105914;1254;74882;-64
2023/08/24 03:36:04;;;;;;;13.90;8.70;;;;;;;19.42;67.23;99498.83;105901;1253;69002;-59
2023/08/24 03:38:31;;;;;;;17.30;9.40;;;;;;;19.64;66.37;99498.28;105958;1253;73174;-59
2023/08/24 03:41:06;;;;;;;18.50;8.10;;;;;;;19.83;65.73;99495.64;105908;1253;61977;-59
2023/08/24 03:43:34;;;;;;;20.10;10.00;;;;;;;20.05;64.91;99498.38;105905;1254;61267;-59
2023/08/24 03:46:02;;;;;;;30.90;17.60;;;;;;;20.26;64.57;99507.31;105920;1256;75167;-58
2023/08/24 03:48:29;;;;;;;20.30;9.60;;;;;;;20.52;63.85;99510.31;105675;1253;68595;-60
2023/08/24 03:50:57;;;;;;;27.30;9.30;;;;;;;20.53;62.63;99513.87;105899;1253;73175;-59
2023/08/24 03:53:25;;;;;;;20.40;9.80;;;;;;;20.65;62.82;99516.48;105813;1253;62194;-58
2023/08/24 03:55:52;;;;;;;20.20;9.90;;;;;;;21.07;61.62;99519.05;105937;1253;61263;-60
2023/08/24 03:58:20;;;;;;;17.00;8.80;;;;;;;21.43;60.28;99520.52;105925;1257;75266;-67
2023/08/24 04:00:47;;;;;;;13.50;7.70;;;;;;;21.71;58.63;99521.61;105836;1253;69120;-62
2023/08/24 04:03:14;;;;;;;10.50;6.20;;;;;;;22.05;57.12;99520.10;105951;1251;73062;-60
2023/08/24 04:05:41;;;;;;;17.30;6.30;;;;;;;22.12;55.79;99523.11;105937;1251;61895;-60
2023/08/24 04:08:07;;;;;;;9.30;6.30;;;;;;;22.13;55.33;99521.43;105810;1256;62299;-61
2023/08/24 04:10:34;;;;;;;13.50;6.90;;;;;;;22.25;56.34;99523.23;105964;1257;75102;-59
2023/08/24 04:13:01;;;;;;;11.60;7.70;;;;;;;22.58;55.01;99522.15;105959;1251;69357;-60
2023/08/24 04:15:28;;;;;;;9.50;6.20;;;;;;;22.89;53.60;99522.71;105763;1254;72887;-60
2023/08/24 04:17:56;;;;;;;12.60;6.00;;;;;;;23.18;51.77;99524.77;105948;1255;61894;-63
2023/08/24 04:20:24;;;;;;;11.40;6.20;;;;;;;22.78;52.78;99521.71;105961;1251;62221;-60
2023/08/24 04:22:50;;;;;;;17.20;5.50;;;;;;;22.87;52.42;99525.92;105658;1251;75179;-59
2023/08/24 04:25:17;;;;;;;10.40;5.40;;;;;;;23.00;52.18;99525.08;105950;1256;69136;-59
2023/08/24 04:27:44;;;;;;;12.50;5.10;;;;;;;23.39;51.35;99523.98;105941;1256;73447;-60
2023/08/24 04:30:12;;;;;;;13.60;5.70;;;;;;;23.82;50.56;99530.17;105932;1251;61868;-60
2023/08/24 04:32:39;;;;;;;10.20;5.30;;;;;;;24.34;49.56;99533.29;105698;1251;61324;-59
2023/08/24 04:35:07;;;;;;;11.40;5.80;;;;;;;24.90;48.30;99535.12;105997;1256;74545;-60
2023/08/24 04:37:34;;;;;;;17.00;6.90;;;;;;;25.36;47.22;99536.00;105726;1260;67300;-58
2023/08/24 04:40:01;;;;;;;16.70;5.70;;;;;;;25.74;46.07;99536.14;105961;1251;72797;-66
2023/08/24 04:42:28;;;;;;;8.70;4.40;;;;;;;26.28;44.81;99537.63;106014;1251;61321;-60
2023/08/24 04:44:55;;;;;;;7.10;3.90;;;;;;;26.32;42.47;99540.71;105661;1251;61471;-60
2023/08/24 04:47:21;;;;;;;8.60;3.90;;;;;;;26.52;42.79;99542.65;105987;1256;75398;-60
2023/08/24 04:49:48;;;;;;;9.60;3.60;;;;;;;26.75;41.80;99536.14;105994;1251;68434;-60
2023/08/24 04:52:15;;;;;;;9.90;3.70;;;;;;;26.80;41.48;99539.15;106014;1255;72813;-60
2023/08/24 04:54:42;;;;;;;10.10;3.70;;;;;;;26.90;41.23;99539.89;105954;1251;62330;-59
2023/08/24 04:57:09;;;;;;;7.50;3.30;;;;;;;27.04;41.05;99537.17;105937;1251;61247;-59
2023/08/24 04:59:36;;;;;;;6.80;3.50;;;;;;;27.53;39.99;99536.81;105967;1256;75149;-62
2023/08/24 05:02:03;;;;;;;13.90;3.80;;;;;;;27.71;39.81;99535.44;105649;1254;69174;-61
2023/08/24 05:04:29;;;;;;;6.50;3.20;;;;;;;28.08;39.45;99537.77;105913;1257;71883;-61
2023/08/24 05:06:56;;;;;;;9.50;2.90;;;;;;;28.22;38.48;99535.37;105940;1251;61258;-59
2023/08/24 05:09:23;;;;;;;6.40;3.40;;;;;;;28.49;38.70;99541.73;105921;1251;61211;-61
2023/08/24 05:11:50;;;;;;;13.10;3.30;;;;;;;28.91;37.87;99540.43;105631;1259;75307;-59
2023/08/24 05:14:16;;;;;;;7.50;3.30;;;;;;;29.17;37.38;99547.77;105992;1251;69158;-59
2023/08/24 05:16:43;;;;;;;10.50;3.70;;;;;;;29.53;37.09;99548.02;105944;1256;73009;-61
2023/08/24 05:19:10;;;;;;;7.60;3.10;;;;;;;29.87;35.86;99544.27;105636;1251;61316;-63
2023/08/24 05:21:37;;;;;;;13.90;3.70;;;;;;;29.92;35.43;99544.16;106006;1251;62332;-65
2023/08/24 05:24:04;;;;;;;12.30;3.60;;;;;;;29.96;35.58;99545.85;105958;1255;75557;-61
2023/08/24 05:26:32;;;;;;;12.70;3.90;;;;;;;30.32;35.25;99546.16;105928;1253;68836;-61
2023/08/24 05:28:58;;;;;;;16.90;4.10;;;;;;;30.55;34.78;99547.70;105859;1256;72976;-63
2023/08/24 05:31:25;;;;;;;33.00;4.50;;;;;;;30.63;34.78;99546.55;105915;1253;61230;-61
2023/08/24 05:33:52;;;;;;;12.10;4.20;;;;;;;31.07;33.98;99547.59;105891;1253;61677;-61
2023/08/24 05:36:19;;;;;;;23.70;4.90;;;;;;;31.44;33.28;99551.33;105940;1256;66039;-61
2023/08/24 05:38:46;;;;;;;22.30;7.90;;;;;;;31.86;32.56;99551.81;105878;1256;68999;-60
2023/08/24 05:41:31;;;;;;;28.00;10.60;;;;;;;32.06;32.52;99559.09;105949;1253;72369;-61
2023/08/24 05:43:58;;;;;;;26.50;7.90;;;;;;;31.85;32.92;99558.21;105888;1253;61273;-62
2023/08/24 05:46:25;;;;;;;20.10;8.30;;;;;;;32.07;32.41;99561.77;105872;1253;61263;-65
2023/08/24 05:48:52;;;;;;;27.40;9.90;;;;;;;32.49;32.15;99562.33;105873;1256;65782;-64
2023/08/24 05:51:19;;;;;;;19.60;9.10;;;;;;;32.60;32.00;99567.05;105927;1253;61292;-61
2023/08/24 05:53:45;;;;;;;17.30;7.40;;;;;;;32.55;31.66;99565.80;105919;1253;63887;-64
2023/08/24 05:56:12;;;;;;;20.40;6.90;;;;;;;32.77;31.47;99568.56;105917;1253;61225;-63
2023/08/24 05:58:39;;;;;;;20.60;9.10;;;;;;;32.94;30.81;99567.06;105954;1253;61683;-62
2023/08/24 06:01:07;;;;;;;28.20;11.70;;;;;;;32.81;31.05;99566.17;105894;1257;65839;-61
2023/08/24 06:03:34;;;;;;;21.50;13.10;;;;;;;32.64;31.39;99568.23;105949;1253;61259;-60
2023/08/24 06:06:03;;;;;;;29.70;13.00;;;;;;;32.45;31.62;99566.86;105905;1257;63988;-63
2023/08/24 06:08:30;;;;;;;27.80;12.00;;;;;;;32.52;32.25;99563.91;105929;1253;61251;-68
2023/08/24 06:10:58;;;;;;;31.00;13.70;;;;;;;32.55;32.80;99563.19;105927;1253;61347;-63
2023/08/24 06:13:25;;;;;;;26.60;12.40;;;;;;;32.32;33.31;99564.42;105671;1259;65878;-60
2023/08/24 06:15:52;;;;;;;28.90;11.60;;;;;;;32.27;33.79;99565.23;105880;1257;68902;-59
2023/08/24 06:18:19;;;;;;;;;;;;;;;32.09;33.55;99566.53;105945;1256;64057;-61
2023/08/24 06:20:48;;;;;;;21.50;10.40;;;;;;;32.11;33.30;99563.44;105913;1253;61193;-62
2023/08/24 06:23:18;;;;;;;25.70;9.80;;;;;;;32.25;33.28;99561.50;105945;1253;61270;-61
2023/08/24 06:25:45;;;;;;;24.60;9.80;;;;;;;32.39;32.93;99559.66;105898;1258;65802;-61
2023/08/24 06:28:13;;;;;;;24.30;9.30;;;;;;;32.27;33.19;99556.35;105929;1253;61257;-60
2023/08/24 06:30:43;;;;;;;28.50;10.90;;;;;;;32.44;32.90;99562.27;105900;1253;72988;-65
2023/08/24 06:33:13;;;;;;;18.60;10.30;;;;;;;32.54;32.77;99562.23;105900;1253;62267;-62
2023/08/24 06:35:40;;;;;;;24.40;9.10;;;;;;;32.53;32.66;99563.82;105897;1253;61336;-61
2023/08/24 06:38:07;;;;;;;19.30;8.30;;;;;;;32.46;32.65;99566.53;105892;1259;74599;-61
2023/08/24 06:40:34;;;;;;;13.40;6.40;;;;;;;32.79;32.16;99569.36;105682;1253;61396;-64
2023/08/24 06:43:00;;;;;;;14.50;5.40;;;;;;;32.94;31.44;99569.38;105873;1253;63974;-62
2023/08/24 06:45:27;;;;;;;32.90;6.20;;;;;;;33.00;31.45;99569.73;105879;1253;61913;-63
2023/08/24 06:47:54;;;;;;;5.50;2.30;;;;;;;32.95;30.18;99565.48;105867;1253;61334;-66
2023/08/24 06:50:21;;;;;;;3.20;1.50;;;;;;;32.39;29.67;99568.92;105896;1256;65701;-64
2023/08/24 06:52:48;;;;;;;6.20;2.50;;;;;;;32.31;29.92;99574.83;105886;1253;62548;-67
2023/08/24 06:55:15;;;;;;;12.70;2.80;;;;;;;32.73;30.10;99577.02;105595;1261;73158;-63
2023/08/24 06:57:41;;;;;;;2.40;1.90;;;;;;;32.60;29.33;99574.84;105895;1253;61329;-61
2023/08/24 07:00:09;;;;;;;6.00;1.90;;;;;;;32.54;29.07;99575.80;105926;1253;61347;-62
2023/08/24 07:02:36;;;;;;;5.50;1.90;;;;;;;32.75;28.78;99578.75;105617;1253;65770;-60
2023/08/24 07:05:08;;;;;;;5.40;2.30;;;;;;;33.04;27.97;99580.61;105892;1253;61249;-64
2023/08/24 07:07:35;;;;;;;4.70;3.00;;;;;;;33.13;28.07;99582.40;105958;1253;63905;-60
2023/08/24 07:10:03;;;;;;;6.00;2.80;;;;;;;33.42;27.35;99585.00;105884;1255;61356;-66
2023/08/24 07:12:30;;;;;;;2.90;1.80;;;;;;;33.76;26.66;99585.48;105917;1253;61145;-61
2023/08/24 07:14:57;;;;;;;11.00;2.70;;;;;;;33.92;26.11;99582.16;105948;1252;65778;-64
2023/08/24 07:17:24;;;;;;;3.50;2.30;;;;;;;34.02;25.80;99585.09;105936;1253;61694;-64
2023/08/24 07:19:51;;;;;;;;;;;;;;;33.83;25.66;99583.66;105629;1253;63860;-60
2023/08/24 07:22:19;;;;;;;2.80;1.40;;;;;;;33.43;25.77;99586.55;105596;1254;61208;-62
2023/08/24 07:24:46;;;;;;;25.30;3.30;;;;;;;33.19;26.26;99585.53;105579;1253;61390;-64
2023/08/24 07:27:13;;;;;;;3.00;1.70;;;;;;;33.47;25.94;99587.04;105921;1256;65773;-65
2023/08/24 07:29:40;;;;;;;5.30;1.80;;;;;;;33.78;25.58;99588.64;105647;1259;61677;-65
2023/08/24 07:32:06;;;;;;;5.50;1.60;;;;;;;33.12;25.59;99587.85;105892;1253;63897;-64
2023/08/24 07:34:34;;;;;;;3.10;1.50;;;;;;;32.82;26.19;99583.79;105590;1253;61189;-68
2023/08/24 07:37:01;;;;;;;;;;;;;;;32.73;26.50;99590.98;105630;1253;61213;-67
2023/08/24 07:39:28;;;;;;;6.10;2.70;;;;;;;33.09;26.23;99587.09;105706;1260;65794;-62
2023/08/24 07:41:55;;;;;;;4.20;1.50;;;;;;;33.37;25.94;99587.89;105990;1256;70479;-66
2023/08/24 07:44:22;;;;;;;20.90;15.40;;;;;;;33.27;26.05;99586.68;105827;1253;63957;-65
2023/08/24 07:46:49;;;;;;;18.50;14.20;;;;;;;33.32;25.73;99588.39;105864;1253;61230;-67
2023/08/24 07:49:19;;;;;;;2.90;1.40;;;;;;;33.28;25.63;99590.40;105920;1254;61369;-65
2023/08/24 07:51:47;;;;;;;2.40;1.30;;;;;;;33.03;25.85;99584.75;105548;1255;65984;-69
2023/08/24 07:54:14;;;;;;;6.60;4.30;;;;;;;33.21;26.04;99592.60;105933;1255;61381;-68
2023/08/24 07:56:42;;;;;;;2.30;1.60;;;;;;;33.58;25.32;99594.11;105615;1253;63615;-67
2023/08/24 07:59:09;;;;;;;8.10;7.30;;;;;;;33.46;25.18;99594.65;105883;1253;61180;-70
2023/08/24 08:01:36;;;;;;;22.80;6.10;;;;;;;33.50;25.33;99593.77;105970;1253;61238;-66
2023/08/24 08:04:03;;;;;;;9.60;2.50;;;;;;;33.18;25.14;99589.34;105960;1256;65924;-65
2023/08/24 08:06:30;;;;;;;6.80;4.70;;;;;;;32.82;25.34;99590.63;105906;1253;61336;-69
2023/08/24 08:08:58;;;;;;;7.00;4.10;;;;;;;32.66;25.82;99590.94;105884;1253;63732;-68
2023/08/24 08:11:24;;;;;;;4.50;1.90;;;;;;;32.75;25.56;99589.46;105924;1251;61221;-69
2023/08/24 08:13:51;;;;;;;2.00;1.50;;;;;;;32.84;25.45;99589.11;105982;1251;61247;-70
2023/08/24 08:16:18;;;;;;;2.60;1.80;;;;;;;33.09;25.72;99586.77;105923;1256;65946;-69
2023/08/24 08:18:45;;;;;;;4.60;3.40;;;;;;;33.29;25.19;99589.20;105930;1253;61252;-69
2023/08/24 08:21:17;;;;;;;7.40;3.50;;;;;;;33.38;25.29;99587.16;105680;1253;63916;-69
2023/08/24 08:23:48;;;;;;;8.90;3.10;;;;;;;33.17;25.08;99582.86;105666;1253;61248;-73
2023/08/24 08:26:15;;;;;;;45.20;23.60;;;;;;;33.03;25.17;99578.88;105781;1254;61224;-75
2023/08/24 08:28:42;;;;;;;9.20;3.10;;;;;;;33.34;24.96;99582.04;106154;1253;66007;-73
2023/08/24 08:31:09;;;;;;;5.10;2.30;;;;;;;33.50;24.59;99582.39;106045;1253;61254;-72
2023/08/24 08:33:36;;;;;;;10.60;5.40;;;;;;;34.05;23.96;99585.61;106074;1253;63617;-80
2023/08/24 08:36:04;;;;;;;44.50;38.80;;;;;;;34.16;23.68;99584.18;106153;1256;61099;-85
2023/08/24 08:38:31;;;;;;;24.70;21.20;;;;;;;33.90;23.93;99586.46;106103;1253;61308;-80
2023/08/24 08:41:02;;;;;;;13.40;8.30;;;;;;;34.09;23.85;99586.54;105884;1256;158019;-80
2023/08/24 08:43:32;;;;;;;7.70;4.10;;;;;;;34.07;23.87;99576.77;106080;1253;61272;-85
2023/08/24 08:45:59;;;;;;;9.90;2.40;;;;;;;33.75;24.63;99582.94;106039;1253;63961;-77
2023/08/24 08:48:26;;;;;;;14.90;8.90;;;;;;;33.94;24.77;99582.77;105763;1253;61222;-76
2023/08/24 08:50:55;;;;;;;7.10;3.10;;;;;;;34.53;23.82;99580.92;106044;1256;62266;-83
2023/08/24 08:53:22;;;;;;;9.90;3.00;;;;;;;34.61;23.35;99579.56;105834;1253;64525;-78
2023/08/24 08:55:53;;;;;;;2.70;1.30;;;;;;;34.73;23.27;99576.40;106032;1253;61403;-83
2023/08/24 08:58:20;;;;;;;7.40;1.90;;;;;;;34.58;22.76;99575.92;106097;1253;63782;-82
2023/08/24 09:00:47;;;;;;;7.80;7.10;;;;;;;34.53;23.34;99572.88;106020;1253;61113;-77
2023/08/24 09:03:17;;;;;;;9.60;5.00;;;;;;;34.80;23.44;99574.95;105989;1253;61328;-81
2023/08/24 09:05:47;;;;;;;16.10;9.30;;;;;;;34.74;23.19;99570.48;106068;1255;64444;-79
2023/08/24 09:08:16;;;;;;;31.30;24.50;;;;;;;34.89;23.14;99571.96;105960;1253;62199;-76
2023/08/24 09:10:44;;;;;;;7.90;4.20;;;;;;;35.22;22.47;99568.35;105856;1257;64096;-79
2023/08/24 09:13:12;;;;;;;12.50;4.90;;;;;;;35.29;22.86;99566.89;106128;1253;61155;-78
2023/08/24 09:15:38;;;;;;;;;;;;;;;34.85;23.60;99561.83;106080;1263;61222;-80
2023/08/24 09:18:06;;;;;;;4.10;2.00;;;;;;;34.45;24.03;99553.45;106060;1255;65616;-78
2023/08/24 09:20:34;;;;;;;3.90;2.30;;;;;;;34.05;24.16;99556.19;106112;1254;61257;-80
2023/08/24 09:23:00;;;;;;;75.10;46.20;;;;;;;33.81;24.22;99548.23;106106;1256;63714;-85
2023/08/24 09:25:27;;;;;;;13.00;6.90;;;;;;;34.35;23.90;99551.40;106071;1252;61244;-84
2023/08/24 09:27:58;;;;;;;9.20;4.00;;;;;;;34.22;23.57;99550.05;106915;1251;61122;-80
2023/08/24 09:30:35;;;;;;;3.50;1.60;;;;;;;34.16;23.40;99548.45;109818;1251;64474;-80
2023/08/24 09:33:03;;;;;;;3.40;1.60;;;;;;;33.85;23.85;99541.09;109852;1251;59116;-80
2023/08/24 09:35:35;;;;;;;4.60;1.80;;;;;;;33.30;24.39;99541.69;109792;1251;62778;-77
2023/08/24 09:38:18;;;;;;;10.90;5.20;;;;;;;33.36;24.85;99537.42;107981;1252;62411;-80
2023/08/24 09:40:49;;;;;;;7.80;3.70;;;;;;;33.50;24.79;99543.61;107162;1257;61221;-80
2023/08/24 09:43:15;;;;;;;5.50;2.00;;;;;;;33.99;24.14;99539.30;106498;1256;64445;-81
2023/08/24 09:45:55;;;;;;;18.60;11.30;;;;;;;34.77;23.49;99537.31;106206;1257;61806;-79
2023/08/24 09:48:23;;;;;;;158.40;146.30;;;;;;;35.31;22.45;99537.59;105935;1257;63815;-82
2023/08/24 09:50:51;;;;;;;37.90;34.40;;;;;;;35.27;21.61;99540.13;106166;1251;61339;-79
2023/08/24 09:53:22;;;;;;;11.60;5.50;;;;;;;35.42;21.59;99541.80;106118;1251;61333;-79
2023/08/24 09:55:56;;;;;;;28.70;21.20;;;;;;;36.00;21.63;99545.73;105945;1259;65768;-77
2023/08/24 09:58:22;;;;;;;22.50;19.10;;;;;;;35.86;21.71;99547.23;106095;1251;61317;-80
2023/08/24 10:00:49;;;;;;;9.70;7.50;;;;;;;35.92;21.71;99544.33;105890;1257;62649;-79
2023/08/24 10:03:21;;;;;;;4.20;2.70;;;;;;;35.71;21.65;99534.33;106088;1254;61242;-79
2023/08/24 10:05:51;;;;;;;8.30;6.20;;;;;;;35.46;21.94;99526.77;105928;1251;61238;-78
2023/08/24 10:08:29;;;;;;;5.10;1.60;;;;;;;35.20;22.37;99527.09;106216;1256;66753;-75
2023/08/24 10:10:58;;;;;;;2.80;1.60;;;;;;;34.64;22.82;99523.45;106083;1257;61224;-80
2023/08/24 10:13:34;;;;;;;3.20;1.80;;;;;;;34.76;22.61;99523.15;106254;1251;63707;-81
2023/08/24 10:16:01;;;;;;;4.70;2.00;;;;;;;34.28;23.07;99516.70;106114;1257;61252;-83
2023/08/24 10:18:28;;;;;;;7.90;5.40;;;;;;;34.55;23.41;99516.08;106117;1252;61749;-79
2023/08/24 10:20:56;;;;;;;4.00;2.20;;;;;;;35.09;22.04;99520.80;106173;1256;65713;-76
2023/08/24 10:23:23;;;;;;;3.30;1.70;;;;;;;34.80;21.97;99525.17;106278;1257;61233;-72
2023/08/24 10:25:50;;;;;;;3.70;2.10;;;;;;;34.27;22.36;99519.91;105779;1257;63731;-71
2023/08/24 10:28:18;;;;;;;2.80;1.80;;;;;;;34.08;23.07;99518.45;106132;1253;61170;-70
2023/08/24 10:30:45;;;;;;;5.30;1.60;;;;;;;34.33;23.11;99518.33;106102;1253;61333;-69
2023/08/24 10:33:13;;;;;;;5.80;1.90;;;;;;;34.33;23.10;99517.30;106195;1257;65881;-82
2023/08/24 10:35:40;;;;;;;6.60;2.20;;;;;;;34.00;23.25;99519.23;106114;1257;61357;-71
2023/08/24 10:38:07;;;;;;;6.60;2.70;;;;;;;33.59;23.86;99518.19;105997;1257;62628;-73
2023/08/24 10:40:35;;;;;;;4.80;3.50;;;;;;;33.63;23.92;99513.52;106034;1257;61248;-73
2023/08/24 10:43:04;;;;;;;6.80;2.80;;;;;;;34.00;23.66;99512.71;106303;1254;61260;-73
2023/08/24 10:45:56;;;;;;;4.80;2.30;;;;;;;33.78;23.75;99510.23;106232;1257;65881;-75
2023/08/24 10:48:46;;;;;;;4.80;2.00;;;;;;;33.31;24.14;99509.96;106248;1252;61157;-71
2023/08/24 10:51:13;;;;;;;4.70;2.20;;;;;;;33.94;23.58;99513.55;105356;1265;63926;-70
2023/08/24 10:53:40;;;;;;;4.40;1.50;;;;;;;34.49;22.60;99510.59;105247;1260;61342;-72
2023/08/24 10:56:13;;;;;;;;;;;;;;;34.91;22.09;99503.83;105567;1261;61314;-70
2023/08/24 10:58:41;;;;;;;6.20;1.90;;;;;;;34.95;22.21;99502.65;105310;1261;65905;-70
2023/08/24 11:01:13;;;;;;;;;;;;;;;34.87;22.42;99509.15;105544;1263;61352;-73
2023/08/24 11:03:42;;;;;;;5.20;1.90;;;;;;;35.56;21.93;99508.48;105756;1261;63936;-70
2023/08/24 11:06:20;;;;;;;7.60;1.70;;;;;;;36.18;21.29;99507.80;105649;1263;61406;-74
